createdAt,value
2023-04-26T00:01:20.515Z,8.66
2023-04-26T00:03:49.830Z,8.90
2023-04-26T00:06:18.967Z,9.14
2023-04-26T00:08:48.003Z,9.33
2023-04-26T00:11:18.451Z,9.23
2023-04-26T00:13:47.495Z,9.24
2023-04-26T00:16:16.828Z,9.16
2023-04-26T00:18:46.305Z,9.12
2023-04-26T00:21:15.333Z,9.08
2023-04-26T00:23:44.333Z,8.99
2023-04-26T00:26:13.342Z,8.97
2023-04-26T00:28:43.826Z,8.82
2023-04-26T00:31:16.128Z,8.73
2023-04-26T00:33:45.592Z,8.68
2023-04-26T00:36:15.464Z,8.66
2023-04-26T00:38:44.490Z,8.47
2023-04-26T00:41:13.616Z,8.38
2023-04-26T00:43:44.108Z,8.39
2023-04-26T00:46:13.560Z,8.40
2023-04-26T00:48:43.825Z,8.14
2023-04-26T00:51:13.749Z,7.63
2023-04-26T00:53:43.422Z,7.30
2023-04-26T00:56:13.335Z,7.26
2023-04-26T00:58:44.322Z,7.16
2023-04-26T01:01:13.553Z,6.86
2023-04-26T01:03:44.554Z,6.55
2023-04-26T01:06:14.254Z,6.25
2023-04-26T01:08:43.641Z,6.50
2023-04-26T01:11:12.983Z,6.43
2023-04-26T01:13:43.780Z,6.11
2023-04-26T01:16:16.429Z,5.81
2023-04-26T01:18:45.630Z,5.67
2023-04-26T01:21:20.954Z,5.81
2023-04-26T01:23:52.388Z,5.76
2023-04-26T01:26:21.820Z,5.78
2023-04-26T01:28:51.100Z,5.74
2023-04-26T01:31:21.242Z,5.53
2023-04-26T01:33:50.391Z,5.54
2023-04-26T01:36:21.730Z,5.51
2023-04-26T01:38:52.397Z,5.55
2023-04-26T01:41:24.483Z,5.56
2023-04-26T01:43:55.568Z,5.66
2023-04-26T01:46:24.712Z,5.72
2023-04-26T01:48:54.017Z,6.07
2023-04-26T01:51:25.154Z,6.25
2023-04-26T01:53:55.629Z,6.23
2023-04-26T01:56:25.763Z,6.06
2023-04-26T01:58:56.468Z,6.05
2023-04-26T02:01:26.380Z,6.11
2023-04-26T02:03:55.490Z,6.21
2023-04-26T02:06:24.575Z,6.21
2023-04-26T02:08:55.624Z,6.25
2023-04-26T02:11:24.845Z,6.20
2023-04-26T02:13:54.329Z,6.24
2023-04-26T02:16:23.579Z,6.19
2023-04-26T02:18:53.803Z,6.24
2023-04-26T02:21:23.948Z,6.17
2023-04-26T02:23:52.939Z,5.98
2023-04-26T02:26:23.366Z,5.83
2023-04-26T02:28:53.182Z,5.87
2023-04-26T02:31:23.319Z,6.06
2023-04-26T02:33:52.571Z,5.88
2023-04-26T02:36:21.651Z,5.88
2023-04-26T02:38:51.114Z,5.95
2023-04-26T02:41:20.507Z,5.89
2023-04-26T02:43:50.915Z,5.88
2023-04-26T02:46:20.069Z,5.74
2023-04-26T02:48:49.194Z,5.60
2023-04-26T02:51:18.472Z,5.53
2023-04-26T02:53:47.511Z,5.54
2023-04-26T02:56:16.781Z,5.34
2023-04-26T02:58:46.542Z,5.19
2023-04-26T03:01:17.919Z,5.01
2023-04-26T03:03:47.488Z,4.87
2023-04-26T03:06:16.584Z,4.80
2023-04-26T03:08:45.564Z,4.84
2023-04-26T03:11:14.718Z,4.81
2023-04-26T03:13:44.208Z,4.78
2023-04-26T03:16:13.334Z,4.73
2023-04-26T03:18:43.778Z,4.65
2023-04-26T03:21:13.059Z,4.53
2023-04-26T03:23:42.612Z,4.42
2023-04-26T03:26:12.087Z,4.55
2023-04-26T03:28:41.103Z,4.46
2023-04-26T03:31:10.152Z,4.32
2023-04-26T03:33:39.228Z,4.22
2023-04-26T03:36:10.531Z,4.17
2023-04-26T03:38:39.956Z,4.17
2023-04-26T03:41:09.236Z,4.18
2023-04-26T03:43:39.668Z,4.05
2023-04-26T03:46:08.734Z,3.96
2023-04-26T03:48:37.842Z,3.96
2023-04-26T03:51:07.087Z,3.93
2023-04-26T03:53:37.532Z,3.94
2023-04-26T03:56:08.788Z,3.87
2023-04-26T03:58:39.319Z,3.82
2023-04-26T04:01:08.690Z,3.73
2023-04-26T04:03:40.147Z,3.76
2023-04-26T04:06:10.377Z,3.85
2023-04-26T04:08:41.002Z,3.84
2023-04-26T04:11:11.079Z,3.89
2023-04-26T04:13:41.592Z,3.89
2023-04-26T04:16:11.360Z,4.15
2023-04-26T04:18:40.531Z,4.37
2023-04-26T04:21:09.696Z,4.49
2023-04-26T04:23:40.747Z,4.60
2023-04-26T04:26:12.864Z,4.69
2023-04-26T04:28:42.786Z,4.68
2023-04-26T04:31:13.238Z,4.71
2023-04-26T04:33:42.902Z,4.71
2023-04-26T04:36:11.983Z,4.60
2023-04-26T04:38:42.485Z,4.62
2023-04-26T04:41:12.568Z,4.71
2023-04-26T04:43:41.792Z,4.89
2023-04-26T04:46:12.708Z,5.11
2023-04-26T04:48:44.489Z,5.11
2023-04-26T04:51:13.724Z,5.14
2023-04-26T04:53:44.470Z,5.24
2023-04-26T04:56:14.582Z,5.47
2023-04-26T04:58:43.812Z,5.62
2023-04-26T05:01:15.193Z,5.82
2023-04-26T05:03:52.198Z,5.81
2023-04-26T05:06:22.532Z,5.86
2023-04-26T05:08:53.087Z,5.92
2023-04-26T05:11:22.225Z,5.86
2023-04-26T05:13:52.891Z,5.82
2023-04-26T05:16:23.024Z,5.91
2023-04-26T05:18:52.706Z,5.89
2023-04-26T05:21:24.171Z,6.06
2023-04-26T05:23:55.229Z,6.17
2023-04-26T05:26:24.506Z,6.27
2023-04-26T05:28:53.472Z,6.37
2023-04-26T05:31:41.216Z,6.49
2023-04-26T05:34:22.532Z,6.57
2023-04-26T05:36:56.751Z,6.70
2023-04-26T05:39:27.627Z,6.65
2023-04-26T05:41:56.733Z,6.77
2023-04-26T05:44:25.843Z,6.93
2023-04-26T05:46:54.976Z,7.09
2023-04-26T05:49:24.028Z,7.15
2023-04-26T05:51:54.272Z,7.17
2023-04-26T05:54:23.343Z,7.04
2023-04-26T05:56:53.799Z,7.09
2023-04-26T05:59:22.871Z,7.31
2023-04-26T06:01:52.065Z,7.44
2023-04-26T06:04:21.317Z,7.66
2023-04-26T06:07:03.000Z,7.89
2023-04-26T06:09:33.362Z,8.10
2023-04-26T06:12:05.435Z,8.08
2023-04-26T06:14:37.433Z,8.10
2023-04-26T06:17:11.063Z,8.14
2023-04-26T06:19:40.157Z,8.14
2023-04-26T06:22:09.198Z,7.98
2023-04-26T06:24:38.247Z,7.75
2023-04-26T06:27:09.057Z,7.55
2023-04-26T06:29:39.524Z,7.46
2023-04-26T06:32:09.125Z,7.59
2023-04-26T06:34:38.410Z,7.85
2023-04-26T06:37:08.408Z,8.04
2023-04-26T06:39:41.114Z,8.12
2023-04-26T06:42:11.890Z,8.15
2023-04-26T06:45:17.126Z,8.32
2023-04-26T06:47:47.719Z,8.68
2023-04-26T06:50:17.039Z,8.88
2023-04-26T06:52:46.133Z,9.17
2023-04-26T06:55:15.146Z,9.33
2023-04-26T06:57:45.937Z,9.64
2023-04-26T07:00:16.497Z,10.07
2023-04-26T07:02:45.662Z,10.05
2023-04-26T07:05:15.488Z,10.15
2023-04-26T07:07:44.822Z,10.14
2023-04-26T07:10:14.782Z,10.22
2023-04-26T07:12:45.358Z,10.53
2023-04-26T07:15:14.507Z,10.90
2023-04-26T07:17:43.554Z,10.95
2023-04-26T07:20:15.665Z,11.31
2023-04-26T07:22:44.833Z,11.50
2023-04-26T07:25:14.081Z,11.77
2023-04-26T07:27:43.549Z,11.61
2023-04-26T07:30:14.910Z,11.01
2023-04-26T07:32:44.061Z,11.34
2023-04-26T07:35:16.347Z,11.81
2023-04-26T07:37:45.880Z,12.04
2023-04-26T07:40:15.547Z,12.22
2023-04-26T07:42:44.579Z,12.20
2023-04-26T07:45:15.873Z,11.94
2023-04-26T07:47:45.693Z,11.76
2023-04-26T07:50:15.098Z,11.75
2023-04-26T07:52:44.623Z,11.36
2023-04-26T07:55:14.667Z,11.52
2023-04-26T07:57:44.957Z,11.76
2023-04-26T08:00:17.741Z,12.08
2023-04-26T08:02:47.185Z,12.31
2023-04-26T08:05:17.209Z,12.14
2023-04-26T08:07:46.366Z,12.34
2023-04-26T08:10:15.445Z,12.52
2023-04-26T08:12:44.472Z,12.74
2023-04-26T08:15:15.449Z,12.71
2023-04-26T08:17:44.549Z,12.17
2023-04-26T08:20:14.303Z,12.45
2023-04-26T08:22:43.331Z,12.56
2023-04-26T08:25:12.386Z,12.40
2023-04-26T08:27:41.448Z,12.53
2023-04-26T08:30:11.201Z,12.41
2023-04-26T08:32:41.657Z,12.41
2023-04-26T08:35:11.623Z,12.45
2023-04-26T08:37:40.934Z,12.68
2023-04-26T08:40:11.209Z,13.37
2023-04-26T08:42:44.152Z,13.44
2023-04-26T08:45:13.274Z,13.62
2023-04-26T08:47:48.748Z,13.28
2023-04-26T08:50:21.250Z,12.83
2023-04-26T08:52:52.984Z,13.18
2023-04-26T08:55:22.162Z,12.56
2023-04-26T08:57:51.898Z,12.21
2023-04-26T09:00:22.259Z,12.37
2023-04-26T09:02:54.482Z,11.68
2023-04-26T09:05:26.701Z,11.91
2023-04-26T09:08:01.212Z,12.03
2023-04-26T09:10:32.287Z,11.90
2023-04-26T09:13:01.416Z,12.88
2023-04-26T09:15:30.499Z,14.53
2023-04-26T09:18:18.874Z,14.61
2023-04-26T09:21:02.412Z,13.86
2023-04-26T09:23:31.810Z,13.41
2023-04-26T09:26:22.450Z,13.23
2023-04-26T09:29:11.805Z,12.50
2023-04-26T09:31:43.384Z,12.82
2023-04-26T09:34:15.390Z,12.73
2023-04-26T09:36:52.372Z,13.20
2023-04-26T09:39:37.353Z,14.11
2023-04-26T09:42:07.372Z,14.74
2023-04-26T09:44:36.927Z,15.08
2023-04-26T09:47:09.671Z,13.92
2023-04-26T09:49:48.898Z,14.41
2023-04-26T09:52:19.473Z,13.26
2023-04-26T09:54:51.759Z,13.05
2023-04-26T09:57:23.728Z,12.85
2023-04-26T09:59:56.363Z,12.94
2023-04-26T10:02:28.090Z,13.00
2023-04-26T10:05:00.222Z,13.55
2023-04-26T10:07:31.831Z,13.90
2023-04-26T10:10:01.276Z,13.35
2023-04-26T10:12:30.771Z,13.84
2023-04-26T10:15:00.036Z,14.60
2023-04-26T10:17:29.155Z,15.18
2023-04-26T10:20:01.706Z,15.33
2023-04-26T10:22:35.144Z,15.63
2023-04-26T10:25:04.885Z,15.14
2023-04-26T10:27:53.191Z,15.26
2023-04-26T10:30:26.537Z,15.14
2023-04-26T10:33:16.729Z,13.80
2023-04-26T10:36:09.849Z,13.19
2023-04-26T10:38:41.675Z,13.46
2023-04-26T10:41:33.250Z,14.17
2023-04-26T10:44:42.342Z,14.61
2023-04-26T10:47:31.656Z,14.75
2023-04-26T10:50:10.193Z,15.53
2023-04-26T10:53:08.750Z,16.44
2023-04-26T10:55:41.807Z,17.60
2023-04-26T10:58:29.260Z,18.42
2023-04-26T11:01:08.412Z,19.58
2023-04-26T11:03:38.324Z,19.58
2023-04-26T11:06:09.706Z,17.47
2023-04-26T11:08:40.425Z,14.87
2023-04-26T11:11:13.489Z,14.08
2023-04-26T11:13:43.656Z,13.55
2023-04-26T11:16:14.602Z,13.13
2023-04-26T11:18:45.882Z,13.47
2023-04-26T11:21:18.295Z,13.25
2023-04-26T11:23:56.790Z,13.01
2023-04-26T11:26:34.646Z,13.92
2023-04-26T11:29:04.605Z,15.71
2023-04-26T11:31:33.642Z,16.37
2023-04-26T11:34:05.981Z,18.31
2023-04-26T11:36:37.092Z,19.75
2023-04-26T11:39:08.780Z,21.33
2023-04-26T11:41:37.825Z,22.45
2023-04-26T11:44:07.245Z,21.47
2023-04-26T11:46:36.805Z,22.24
2023-04-26T11:49:09.299Z,20.86
2023-04-26T11:51:38.698Z,20.18
2023-04-26T11:54:09.269Z,20.31
2023-04-26T11:56:39.719Z,19.62
2023-04-26T11:59:08.844Z,19.02
2023-04-26T12:01:38.187Z,18.24
2023-04-26T12:04:11.467Z,18.17
2023-04-26T12:06:45.577Z,19.54
2023-04-26T12:09:15.998Z,20.12
2023-04-26T12:11:54.540Z,20.34
2023-04-26T12:14:24.026Z,17.31
2023-04-26T12:16:54.970Z,17.99
2023-04-26T12:19:25.465Z,18.36
2023-04-26T12:21:54.788Z,17.48
2023-04-26T12:24:33.448Z,17.66
2023-04-26T12:27:04.376Z,17.34
2023-04-26T12:29:33.728Z,18.07
2023-04-26T12:32:04.206Z,19.33
2023-04-26T12:34:33.507Z,18.57
2023-04-26T12:37:03.391Z,17.34
2023-04-26T12:39:33.838Z,17.15
2023-04-26T12:42:03.112Z,17.34
2023-04-26T12:44:32.172Z,19.64
2023-04-26T12:47:01.293Z,22.95
2023-04-26T12:49:30.533Z,21.70
2023-04-26T12:51:59.546Z,20.65
2023-04-26T12:54:28.577Z,17.68
2023-04-26T12:56:59.037Z,17.94
2023-04-26T13:03:50.740Z,20.54
2023-04-26T13:06:19.935Z,20.90
2023-04-26T13:08:49.314Z,22.85
2023-04-26T13:11:18.321Z,23.86
2023-04-26T13:13:49.693Z,25.80
2023-04-26T13:16:18.916Z,23.89
2023-04-26T13:18:47.947Z,21.23
2023-04-26T13:21:16.978Z,19.79
2023-04-26T13:23:46.829Z,20.02
2023-04-26T13:26:20.521Z,20.60
2023-04-26T13:28:51.522Z,19.37
2023-04-26T13:31:21.082Z,19.39
2023-04-26T13:33:51.536Z,19.37
2023-04-26T13:36:20.743Z,19.04
2023-04-26T13:38:49.859Z,17.97
2023-04-26T13:41:18.900Z,17.82
2023-04-26T13:43:48.083Z,18.17
2023-04-26T13:46:18.529Z,18.19
2023-04-26T13:48:47.688Z,18.18
2023-04-26T13:51:16.919Z,18.27
2023-04-26T13:53:46.336Z,18.04
2023-04-26T13:56:15.450Z,17.38
2023-04-26T13:58:45.004Z,16.90
2023-04-26T14:01:14.485Z,16.93
2023-04-26T14:03:45.116Z,16.93
2023-04-26T14:06:14.361Z,17.41
2023-04-26T14:08:43.402Z,17.54
2023-04-26T14:11:14.192Z,17.75
2023-04-26T14:13:43.406Z,17.76
2023-04-26T14:16:12.594Z,17.53
2023-04-26T14:18:45.326Z,16.17
2023-04-26T14:21:16.656Z,15.50
2023-04-26T14:23:45.954Z,15.27
2023-04-26T14:26:15.350Z,14.85
2023-04-26T14:28:44.426Z,15.10
2023-04-26T14:31:13.514Z,14.89
2023-04-26T14:33:42.578Z,14.99
2023-04-26T14:36:11.617Z,15.43
2023-04-26T14:38:44.194Z,15.63
2023-04-26T14:41:16.638Z,15.62
2023-04-26T14:43:47.277Z,16.24
2023-04-26T14:46:16.588Z,16.90
2023-04-26T14:48:45.930Z,16.11
2023-04-26T14:51:15.063Z,15.93
2023-04-26T14:53:45.441Z,16.51
2023-04-26T14:56:14.462Z,16.95
2023-04-26T14:58:43.539Z,15.79
2023-04-26T15:01:12.594Z,14.95
2023-04-26T15:03:41.966Z,14.89
2023-04-26T15:06:11.064Z,15.15
2023-04-26T15:08:40.116Z,15.31
2023-04-26T15:11:10.629Z,15.40
2023-04-26T15:13:39.790Z,15.62
2023-04-26T15:16:09.714Z,15.61
2023-04-26T15:18:38.816Z,15.46
2023-04-26T15:21:07.830Z,15.25
2023-04-26T15:23:36.913Z,15.46
2023-04-26T15:26:06.048Z,15.59
2023-04-26T15:28:36.790Z,15.70
2023-04-26T15:31:08.782Z,15.36
2023-04-26T15:33:38.014Z,15.43
2023-04-26T15:36:08.128Z,14.97
2023-04-26T15:38:37.272Z,15.31
2023-04-26T15:41:06.633Z,15.22
2023-04-26T15:43:37.065Z,15.36
2023-04-26T15:46:06.370Z,15.23
2023-04-26T15:48:35.505Z,15.07
2023-04-26T15:51:06.742Z,14.78
2023-04-26T15:53:39.220Z,14.36
2023-04-26T15:56:16.322Z,14.38
2023-04-26T15:58:47.685Z,14.34
2023-04-26T16:01:17.225Z,14.45
2023-04-26T16:03:47.706Z,14.37
2023-04-26T16:06:17.363Z,14.26
2023-04-26T16:08:46.389Z,14.17
2023-04-26T16:11:15.640Z,14.09
2023-04-26T16:13:47.228Z,14.01
2023-04-26T16:16:16.566Z,14.03
2023-04-26T16:18:46.029Z,14.03
2023-04-26T16:21:15.197Z,14.02
2023-04-26T16:23:44.298Z,13.95
2023-04-26T16:26:13.578Z,13.81
2023-04-26T16:28:42.761Z,13.63
2023-04-26T16:31:13.322Z,13.47
2023-04-26T16:33:42.748Z,13.40
2023-04-26T16:36:12.150Z,13.33
2023-04-26T16:38:41.762Z,13.35
2023-04-26T16:41:10.981Z,13.38
2023-04-26T16:43:40.012Z,13.58
2023-04-26T16:46:09.988Z,13.43
2023-04-26T16:48:41.478Z,14.88
2023-04-26T16:51:11.198Z,16.78
2023-04-26T16:53:40.419Z,16.58
2023-04-26T16:56:09.699Z,15.39
2023-04-26T16:58:41.646Z,14.53
2023-04-26T17:01:10.935Z,13.95
2023-04-26T17:03:41.621Z,13.52
2023-04-26T17:06:11.862Z,13.24
2023-04-26T17:08:40.905Z,13.08
2023-04-26T17:11:10.167Z,12.95
2023-04-26T17:13:39.190Z,12.91
2023-04-26T17:16:09.624Z,13.12
2023-04-26T17:18:40.219Z,13.04
2023-04-26T17:21:09.336Z,12.75
2023-04-26T17:23:38.404Z,12.63
2023-04-26T17:26:07.461Z,12.55
2023-04-26T17:28:38.955Z,12.39
2023-04-26T17:31:08.081Z,12.28
2023-04-26T17:33:37.832Z,12.13
2023-04-26T17:36:08.973Z,12.08
2023-04-26T17:38:38.045Z,11.92
2023-04-26T17:41:07.086Z,11.81
2023-04-26T17:43:36.198Z,11.73
2023-04-26T17:46:05.347Z,11.67
2023-04-26T17:48:34.458Z,11.49
2023-04-26T17:51:03.587Z,11.42
2023-04-26T17:53:34.388Z,11.34
2023-04-26T17:56:07.244Z,11.23
2023-04-26T17:58:36.806Z,11.10
2023-04-26T18:01:06.119Z,10.96
2023-04-26T18:03:35.907Z,10.85
2023-04-26T18:06:05.825Z,10.74
2023-04-26T18:08:36.792Z,10.66
2023-04-26T18:11:06.341Z,10.52
2023-04-26T18:13:35.455Z,10.34
2023-04-26T18:16:04.596Z,10.16
2023-04-26T18:18:33.854Z,10.05
2023-04-26T18:21:03.016Z,10.00
2023-04-26T18:23:32.484Z,9.85
2023-04-26T18:26:02.946Z,9.79
2023-04-26T18:28:33.570Z,9.74
2023-04-26T18:31:02.751Z,9.70
2023-04-26T18:33:32.121Z,9.64
2023-04-26T18:36:02.480Z,9.66
2023-04-26T18:38:31.844Z,9.63
2023-04-26T18:41:02.348Z,9.46
2023-04-26T18:43:31.543Z,9.24
2023-04-26T18:46:00.675Z,9.05
2023-04-26T18:48:29.765Z,8.97
2023-04-26T18:50:58.841Z,8.83
2023-04-26T18:53:28.020Z,8.73
2023-04-26T18:55:57.719Z,8.64
2023-04-26T18:58:28.204Z,8.61
2023-04-26T19:00:57.461Z,8.52
2023-04-26T19:03:27.152Z,8.33
2023-04-26T19:05:57.012Z,8.33
2023-04-26T19:08:27.064Z,8.25
2023-04-26T19:10:56.682Z,8.14
2023-04-26T19:13:28.284Z,8.06
2023-04-26T19:15:57.594Z,7.94
2023-04-26T19:18:27.267Z,7.92
2023-04-26T19:20:56.635Z,8.00
2023-04-26T19:23:26.219Z,8.05
2023-04-26T19:25:55.681Z,8.06
2023-04-26T19:28:25.184Z,7.99
2023-04-26T19:30:56.526Z,7.94
2023-04-26T19:33:26.313Z,7.95
2023-04-26T19:35:57.690Z,7.96
2023-04-26T19:38:27.703Z,8.07
2023-04-26T19:40:56.951Z,8.21
2023-04-26T19:43:28.008Z,8.25
2023-04-26T19:45:58.923Z,8.28
2023-04-26T19:48:28.925Z,8.25
2023-04-26T19:50:58.935Z,8.14
2023-04-26T19:53:28.466Z,8.05
2023-04-26T19:56:02.064Z,7.97
2023-04-26T19:58:32.426Z,7.93
2023-04-26T20:01:03.579Z,7.97
2023-04-26T20:03:34.274Z,7.97
2023-04-26T20:06:03.654Z,7.98
2023-04-26T20:08:32.969Z,8.01
2023-04-26T20:11:04.803Z,7.97
2023-04-26T20:13:34.650Z,8.03
2023-04-26T20:16:05.676Z,8.08
2023-04-26T20:18:35.475Z,8.01
2023-04-26T20:21:05.024Z,7.93
2023-04-26T20:23:34.626Z,7.85
2023-04-26T20:26:04.627Z,7.70
2023-04-26T20:28:33.845Z,7.73
2023-04-26T20:31:04.802Z,7.61
2023-04-26T20:33:34.574Z,7.65
2023-04-26T20:36:05.016Z,7.49
2023-04-26T20:38:34.940Z,7.56
2023-04-26T20:41:04.777Z,7.53
2023-04-26T20:43:34.613Z,7.51
2023-04-26T20:46:05.358Z,7.62
2023-04-26T20:48:34.849Z,7.68
2023-04-26T20:51:05.138Z,7.62
2023-04-26T20:53:34.497Z,7.62
2023-04-26T20:56:03.866Z,7.61
2023-04-26T20:58:33.180Z,7.64
2023-04-26T21:01:03.674Z,7.63
2023-04-26T21:03:35.965Z,7.63
2023-04-26T21:06:05.713Z,7.71
2023-04-26T21:08:36.739Z,7.70
2023-04-26T21:11:06.388Z,7.65
2023-04-26T21:13:35.612Z,7.57
2023-04-26T21:16:05.369Z,7.57
2023-04-26T21:18:36.031Z,7.54
2023-04-26T21:21:05.477Z,7.46
2023-04-26T21:23:35.192Z,7.30
2023-04-26T21:26:04.344Z,7.23
2023-04-26T21:28:33.684Z,7.11
2023-04-26T21:31:05.022Z,6.95
2023-04-26T21:33:36.447Z,6.86
2023-04-26T21:36:06.763Z,6.85
2023-04-26T21:38:35.989Z,6.84
2023-04-26T21:41:05.310Z,6.89
2023-04-26T21:43:34.617Z,6.83
2023-04-26T21:46:03.821Z,6.88
2023-04-26T21:48:33.168Z,6.97
2023-04-26T21:51:03.756Z,6.96
2023-04-26T21:53:33.241Z,6.99
2023-04-26T21:56:04.832Z,6.90
2023-04-26T21:58:34.482Z,6.79
2023-04-26T22:01:11.554Z,6.84
2023-04-26T22:03:41.561Z,7.00
2023-04-26T22:06:13.179Z,7.06
2023-04-26T22:08:42.666Z,7.10
2023-04-26T22:11:11.897Z,7.12
2023-04-26T22:13:41.157Z,7.19
2023-04-26T22:16:10.404Z,7.22
2023-04-26T22:18:39.746Z,7.14
2023-04-26T22:21:09.125Z,7.12
2023-04-26T22:23:39.837Z,7.05
2023-04-26T22:26:09.244Z,7.06
2023-04-26T22:28:38.697Z,7.00
2023-04-26T22:31:07.972Z,6.94
2023-04-26T22:33:37.334Z,6.90
2023-04-26T22:36:07.532Z,6.85
2023-04-26T22:38:37.037Z,6.80
2023-04-26T22:41:09.775Z,6.84
2023-04-26T22:43:41.626Z,6.78
2023-04-26T22:46:11.799Z,6.87
2023-04-26T22:48:41.133Z,6.95
2023-04-26T22:51:10.452Z,7.01
2023-04-26T22:53:39.770Z,6.88
2023-04-26T22:56:10.914Z,6.82
2023-04-26T22:58:40.112Z,6.93
2023-04-26T23:01:11.554Z,6.96
2023-04-26T23:03:41.423Z,6.99
2023-04-26T23:06:10.945Z,7.09
2023-04-26T23:08:40.245Z,7.10
2023-04-26T23:11:11.375Z,6.93
2023-04-26T23:13:41.374Z,6.83
2023-04-26T23:16:10.616Z,6.76
2023-04-26T23:18:42.071Z,6.79
2023-04-26T23:21:11.392Z,6.76
2023-04-26T23:23:42.818Z,6.69
2023-04-26T23:26:14.434Z,6.58
2023-04-26T23:28:43.960Z,6.55
2023-04-26T23:31:13.146Z,6.54
2023-04-26T23:33:42.459Z,6.47
2023-04-26T23:36:11.902Z,6.45
2023-04-26T23:38:41.051Z,6.50
2023-04-26T23:41:10.220Z,6.54
2023-04-26T23:43:40.731Z,6.56
2023-04-26T23:46:09.961Z,6.63
2023-04-26T23:48:39.085Z,6.64
2023-04-26T23:51:08.364Z,6.67
2023-04-26T23:53:39.661Z,6.67
2023-04-26T23:56:10.133Z,6.66
2023-04-26T23:58:40.870Z,6.74
